Skravig — FAD5199 — position and weather

sailwx.info

Track history (hours):
 
Tides and Currents Weather Stations Pressure Air Temp Water Temp Dewpoint Dewpoint Depression Visibility Wind Speed Wind Dir Waves Ship Positions

Skravig

Last reported at 2017-Nov-17 13:32 UTC. Time now 2017-Nov-23 03:56 UTC.
Position N 48°23' W 004°30'.

Length 13 m.

Type: Dredging. MMSI: 227401470.

Date/timePositionNaut miles runAvg speedWind from/ knotsBaromVisibWave heightAir tempDewpointWater temp
2017-Nov-17 13:32N 48°23' W 004°30'0 0.0
2017-Nov-17 13:30N 48°23' W 004°30'4 9.0
2017-Nov-17 13:00N 48°18' W 004°30'0 0.4
2017-Nov-17 12:29N 48°19' W 004°30'0 0.0
2017-Nov-17 11:59N 48°19' W 004°30'0 0.0
2017-Nov-17 11:14N 48°19' W 004°30'0 0.0
2017-Nov-17 10:59N 48°19' W 004°30'0 0.0
2017-Nov-17 10:26N 48°19' W 004°30'0 0.0
2017-Nov-17 09:44N 48°19' W 004°30'0 0.0
2017-Nov-17 09:02N 48°18' W 004°30'0 0.1
2017-Nov-17 08:59N 48°19' W 004°30'0 0.0
2017-Nov-17 08:26N 48°19' W 004°30'0 0.8
2017-Nov-17 08:00N 48°18' W 004°30'1 2.8
2017-Nov-17 07:30N 48°20' W 004°29'3 0.2
2017-Nov-16 14:53N 48°23' W 004°30'0 0.0
2017-Nov-16 14:29N 48°23' W 004°30'0 0.0
2017-Nov-16 12:01N 48°23' W 004°30'0 0.1
2017-Nov-16 11:58N 48°23' W 004°30'0 0.0
2017-Nov-16 11:28N 48°23' W 004°30'0 0.0
2017-Nov-16 10:58N 48°23' W 004°30'0 0.0
2017-Nov-16 10:28N 48°23' W 004°30'0 0.0
2017-Nov-16 09:58N 48°23' W 004°30'0 0.7
2017-Nov-16 09:30N 48°23' W 004°30'4 7.6
2017-Nov-16 08:58N 48°18' W 004°29'0 0.2
2017-Nov-16 08:30N 48°18' W 004°29'3 5.7
2017-Nov-16 08:00N 48°21' W 004°29'2 0.1
2017-Nov-15 13:35N 48°23' W 004°30'0 0.5
2017-Nov-15 13:30N 48°23' W 004°30'4 8.5
2017-Nov-15 13:00N 48°19' W 004°30'0 0.4
2017-Nov-15 12:26N 48°19' W 004°30'0 0.0
2017-Nov-15 11:59N 48°19' W 004°30'0 0.0
2017-Nov-15 11:29N 48°19' W 004°30'0 0.0
2017-Nov-15 10:56N 48°19' W 004°30'0 0.0
2017-Nov-15 10:29N 48°19' W 004°30'0 0.0
2017-Nov-15 09:29N 48°19' W 004°30'0 0.0
2017-Nov-15 08:59N 48°19' W 004°30'0 0.0
2017-Nov-15 08:29N 48°19' W 004°30'0 0.5
2017-Nov-15 08:00N 48°18' W 004°30'1 1.0
2017-Nov-15 07:31N 48°19' W 004°30'4 8.0
2017-Nov-15 07:00N 48°23' W 004°30'0 0.1
2017-Nov-15 06:29N 48°23' W 004°30'0 0.0
2017-Nov-15 05:59N 48°23' W 004°30'0 0.0
2017-Nov-15 05:29N 48°23' W 004°30'0 0.0
2017-Nov-15 04:59N 48°23' W 004°30'0 0.0
2017-Nov-15 04:29N 48°23' W 004°30'0 0.0
2017-Nov-15 03:59N 48°23' W 004°30'0 0.0
2017-Nov-15 03:29N 48°23' W 004°30'0 0.0
2017-Nov-15 02:59N 48°23' W 004°30'0 0.0
2017-Nov-15 02:29N 48°23' W 004°30'0 0.0
2017-Nov-15 01:59N 48°23' W 004°30'0 0.0
2017-Nov-15 01:29N 48°23' W 004°30'0 0.0
2017-Nov-15 00:59N 48°23' W 004°30'0 0.0
2017-Nov-15 00:29N 48°23' W 004°30'0 0.0
2017-Nov-14 23:59N 48°23' W 004°30'0 0.0
2017-Nov-14 23:29N 48°23' W 004°30'0 0.0
2017-Nov-14 22:59N 48°23' W 004°30'0 0.0
2017-Nov-14 22:29N 48°23' W 004°30'0 0.0
2017-Nov-14 21:59N 48°23' W 004°30'0 0.0
2017-Nov-14 21:29N 48°23' W 004°30'0 0.0
2017-Nov-14 20:59N 48°23' W 004°30'0 0.0
2017-Nov-14 20:26N 48°23' W 004°30'0 0.0
2017-Nov-14 19:59N 48°23' W 004°30'0 0.0
2017-Nov-14 19:29N 48°23' W 004°30'0 0.0
2017-Nov-14 18:59N 48°23' W 004°30'0 0.0
2017-Nov-14 18:29N 48°23' W 004°30'0 0.0
2017-Nov-14 17:59N 48°23' W 004°30'0 0.0
2017-Nov-14 17:29N 48°23' W 004°30'0 0.0
2017-Nov-14 16:59N 48°23' W 004°30'0 0.0
2017-Nov-14 16:29N 48°23' W 004°30'0 0.0
2017-Nov-14 15:59N 48°23' W 004°30'0 0.0
2017-Nov-14 15:29N 48°23' W 004°30'0 0.0
2017-Nov-14 14:59N 48°23' W 004°30'0 0.0
2017-Nov-14 14:29N 48°23' W 004°30'0 0.0
2017-Nov-14 13:59N 48°23' W 004°30'0 0.0
2017-Nov-14 13:29N 48°23' W 004°30'0 0.0
2017-Nov-14 12:59N 48°23' W 004°30'0 0.0
2017-Nov-14 12:29N 48°23' W 004°30'0 0.0
2017-Nov-14 11:59N 48°23' W 004°30'0 0.0
2017-Nov-14 11:29N 48°23' W 004°30'0 0.0
2017-Nov-14 10:59N 48°23' W 004°30'0 0.0
2017-Nov-14 10:29N 48°23' W 004°30'0 0.0
2017-Nov-14 09:59N 48°23' W 004°30'0 0.0
2017-Nov-14 09:29N 48°23' W 004°30'0 0.0
2017-Nov-14 08:59N 48°23' W 004°30'0 0.0
2017-Nov-14 08:29N 48°23' W 004°30'  
2017-Nov-10 13:01N 48°23' W 004°30'0 0.0
2017-Nov-10 13:00N 48°23' W 004°30'4 8.5
2017-Nov-10 12:30N 48°19' W 004°30'0 0.2
2017-Nov-10 11:57N 48°19' W 004°30'0 0.0
2017-Nov-10 11:29N 48°18' W 004°30'0 0.4
2017-Nov-10 10:59N 48°18' W 004°30'0 0.0
2017-Nov-10 10:29N 48°18' W 004°30'0 0.0
2017-Nov-10 09:46N 48°18' W 004°30'0 0.0
2017-Nov-10 09:29N 48°18' W 004°30'0 0.0
2017-Nov-10 08:58N 48°18' W 004°30'0 0.5
2017-Nov-10 08:28N 48°19' W 004°30'0 0.0
2017-Nov-10 08:00N 48°19' W 004°30'0 0.7
2017-Nov-10 07:30N 48°18' W 004°30'2 4.6
2017-Nov-10 07:00N 48°20' W 004°29'2 4.8
2017-Nov-10 06:30N 48°23' W 004°30'0 0.0
2017-Nov-09 13:25N 48°23' W 004°30'1 3.6
2017-Nov-09 13:00N 48°21' W 004°29'3 5.8
2017-Nov-09 12:30N 48°19' W 004°30'0 0.0
2017-Nov-09 12:00N 48°19' W 004°30'0 0.4
2017-Nov-09 11:28N 48°18' W 004°30'0 0.0
2017-Nov-09 10:58N 48°18' W 004°30'0 0.0
2017-Nov-09 10:28N 48°18' W 004°30'0 0.0
2017-Nov-09 09:49N 48°18' W 004°30'0 0.0
2017-Nov-09 09:28N 48°18' W 004°30'0 0.0
2017-Nov-09 08:58N 48°18' W 004°30'0 0.0
2017-Nov-09 08:25N 48°18' W 004°30'0 0.0
2017-Nov-09 07:53N 48°18' W 004°30'0 1.0
2017-Nov-09 07:30N 48°18' W 004°30'3 5.8
2017-Nov-09 07:00N 48°21' W 004°29'2 0.1
2017-Nov-08 14:16N 48°23' W 004°30'0 0.0
2017-Nov-08 13:58N 48°23' W 004°30'0 0.0
2017-Nov-08 13:12N 48°23' W 004°30'0 0.0
2017-Nov-08 13:00N 48°23' W 004°30'0 0.0
2017-Nov-08 12:30N 48°23' W 004°30'0 0.0
2017-Nov-08 12:00N 48°23' W 004°30'0 0.0
2017-Nov-08 11:30N 48°23' W 004°30'0 0.0
2017-Nov-08 11:00N 48°23' W 004°30'0 0.0
2017-Nov-08 10:30N 48°23' W 004°30'0 0.0
2017-Nov-08 10:00N 48°23' W 004°30'0 0.0
2017-Nov-08 09:30N 48°23' W 004°30'0 0.0
2017-Nov-08 09:00N 48°23' W 004°30'0 0.0
2017-Nov-08 08:30N 48°23' W 004°30'0 0.0
2017-Nov-07 14:38N 48°23' W 004°30'0 0.0
2017-Nov-07 14:29N 48°23' W 004°30'0 0.0
2017-Nov-07 13:59N 48°23' W 004°30'  
Track history (hours):
 
Tides and Currents Weather Stations Pressure Air Temp Water Temp Dewpoint Dewpoint Depression Visibility Wind Speed Wind Dir Waves Ship Positions

Skravig

Last reported at 2017-Nov-17 13:32 UTC. Time now 2017-Nov-23 03:56 UTC.
Position N 48°23' W 004°30'.

Length 13 m.

Type: Dredging. MMSI: 227401470.

Date/timePositionNaut miles runAvg speedWind from/ knotsBaromVisibWave heightAir tempDewpointWater temp
2017-Nov-17 13:32N 48°23' W 004°30'0 0.0
2017-Nov-17 13:30N 48°23' W 004°30'4 9.0
2017-Nov-17 13:00N 48°18' W 004°30'0 0.4
2017-Nov-17 12:29N 48°19' W 004°30'0 0.0
2017-Nov-17 11:59N 48°19' W 004°30'0 0.0
2017-Nov-17 11:14N 48°19' W 004°30'0 0.0
2017-Nov-17 10:59N 48°19' W 004°30'0 0.0
2017-Nov-17 10:26N 48°19' W 004°30'0 0.0
2017-Nov-17 09:44N 48°19' W 004°30'0 0.0
2017-Nov-17 09:02N 48°18' W 004°30'0 0.1
2017-Nov-17 08:59N 48°19' W 004°30'0 0.0
2017-Nov-17 08:26N 48°19' W 004°30'0 0.8
2017-Nov-17 08:00N 48°18' W 004°30'1 2.8
2017-Nov-17 07:30N 48°20' W 004°29'3 0.2
2017-Nov-16 14:53N 48°23' W 004°30'0 0.0
2017-Nov-16 14:29N 48°23' W 004°30'0 0.0
2017-Nov-16 12:01N 48°23' W 004°30'0 0.1
2017-Nov-16 11:58N 48°23' W 004°30'0 0.0
2017-Nov-16 11:28N 48°23' W 004°30'0 0.0
2017-Nov-16 10:58N 48°23' W 004°30'0 0.0
2017-Nov-16 10:28N 48°23' W 004°30'0 0.0
2017-Nov-16 09:58N 48°23' W 004°30'0 0.7
2017-Nov-16 09:30N 48°23' W 004°30'4 7.6
2017-Nov-16 08:58N 48°18' W 004°29'0 0.2
2017-Nov-16 08:30N 48°18' W 004°29'3 5.7
2017-Nov-16 08:00N 48°21' W 004°29'2 0.1
2017-Nov-15 13:35N 48°23' W 004°30'0 0.5
2017-Nov-15 13:30N 48°23' W 004°30'4 8.5
2017-Nov-15 13:00N 48°19' W 004°30'0 0.4
2017-Nov-15 12:26N 48°19' W 004°30'0 0.0
2017-Nov-15 11:59N 48°19' W 004°30'0 0.0
2017-Nov-15 11:29N 48°19' W 004°30'0 0.0
2017-Nov-15 10:56N 48°19' W 004°30'0 0.0
2017-Nov-15 10:29N 48°19' W 004°30'0 0.0
2017-Nov-15 09:29N 48°19' W 004°30'0 0.0
2017-Nov-15 08:59N 48°19' W 004°30'0 0.0
2017-Nov-15 08:29N 48°19' W 004°30'0 0.5
2017-Nov-15 08:00N 48°18' W 004°30'1 1.0
2017-Nov-15 07:31N 48°19' W 004°30'4 8.0
2017-Nov-15 07:00N 48°23' W 004°30'0 0.1
2017-Nov-15 06:29N 48°23' W 004°30'0 0.0
2017-Nov-15 05:59N 48°23' W 004°30'0 0.0
2017-Nov-15 05:29N 48°23' W 004°30'0 0.0
2017-Nov-15 04:59N 48°23' W 004°30'0 0.0
2017-Nov-15 04:29N 48°23' W 004°30'0 0.0
2017-Nov-15 03:59N 48°23' W 004°30'0 0.0
2017-Nov-15 03:29N 48°23' W 004°30'0 0.0
2017-Nov-15 02:59N 48°23' W 004°30'0 0.0
2017-Nov-15 02:29N 48°23' W 004°30'0 0.0
2017-Nov-15 01:59N 48°23' W 004°30'0 0.0
2017-Nov-15 01:29N 48°23' W 004°30'0 0.0
2017-Nov-15 00:59N 48°23' W 004°30'0 0.0
2017-Nov-15 00:29N 48°23' W 004°30'0 0.0
2017-Nov-14 23:59N 48°23' W 004°30'0 0.0
2017-Nov-14 23:29N 48°23' W 004°30'0 0.0
2017-Nov-14 22:59N 48°23' W 004°30'0 0.0
2017-Nov-14 22:29N 48°23' W 004°30'0 0.0
2017-Nov-14 21:59N 48°23' W 004°30'0 0.0
2017-Nov-14 21:29N 48°23' W 004°30'0 0.0
2017-Nov-14 20:59N 48°23' W 004°30'0 0.0
2017-Nov-14 20:26N 48°23' W 004°30'0 0.0
2017-Nov-14 19:59N 48°23' W 004°30'0 0.0
2017-Nov-14 19:29N 48°23' W 004°30'0 0.0
2017-Nov-14 18:59N 48°23' W 004°30'0 0.0
2017-Nov-14 18:29N 48°23' W 004°30'0 0.0
2017-Nov-14 17:59N 48°23' W 004°30'0 0.0
2017-Nov-14 17:29N 48°23' W 004°30'0 0.0
2017-Nov-14 16:59N 48°23' W 004°30'0 0.0
2017-Nov-14 16:29N 48°23' W 004°30'0 0.0
2017-Nov-14 15:59N 48°23' W 004°30'0 0.0
2017-Nov-14 15:29N 48°23' W 004°30'0 0.0
2017-Nov-14 14:59N 48°23' W 004°30'0 0.0
2017-Nov-14 14:29N 48°23' W 004°30'0 0.0
2017-Nov-14 13:59N 48°23' W 004°30'0 0.0
2017-Nov-14 13:29N 48°23' W 004°30'0 0.0
2017-Nov-14 12:59N 48°23' W 004°30'0 0.0
2017-Nov-14 12:29N 48°23' W 004°30'0 0.0
2017-Nov-14 11:59N 48°23' W 004°30'0 0.0
2017-Nov-14 11:29N 48°23' W 004°30'0 0.0
2017-Nov-14 10:59N 48°23' W 004°30'0 0.0
2017-Nov-14 10:29N 48°23' W 004°30'0 0.0
2017-Nov-14 09:59N 48°23' W 004°30'0 0.0
2017-Nov-14 09:29N 48°23' W 004°30'0 0.0
2017-Nov-14 08:59N 48°23' W 004°30'0 0.0
2017-Nov-14 08:29N 48°23' W 004°30'  
2017-Nov-10 13:01N 48°23' W 004°30'0 0.0
2017-Nov-10 13:00N 48°23' W 004°30'4 8.5
2017-Nov-10 12:30N 48°19' W 004°30'0 0.2
2017-Nov-10 11:57N 48°19' W 004°30'0 0.0
2017-Nov-10 11:29N 48°18' W 004°30'0 0.4
2017-Nov-10 10:59N 48°18' W 004°30'0 0.0
2017-Nov-10 10:29N 48°18' W 004°30'0 0.0
2017-Nov-10 09:46N 48°18' W 004°30'0 0.0
2017-Nov-10 09:29N 48°18' W 004°30'0 0.0
2017-Nov-10 08:58N 48°18' W 004°30'0 0.5
2017-Nov-10 08:28N 48°19' W 004°30'0 0.0
2017-Nov-10 08:00N 48°19' W 004°30'0 0.7
2017-Nov-10 07:30N 48°18' W 004°30'2 4.6
2017-Nov-10 07:00N 48°20' W 004°29'2 4.8
2017-Nov-10 06:30N 48°23' W 004°30'0 0.0
2017-Nov-09 13:25N 48°23' W 004°30'1 3.6
2017-Nov-09 13:00N 48°21' W 004°29'3 5.8
2017-Nov-09 12:30N 48°19' W 004°30'0 0.0
2017-Nov-09 12:00N 48°19' W 004°30'0 0.4
2017-Nov-09 11:28N 48°18' W 004°30'0 0.0
2017-Nov-09 10:58N 48°18' W 004°30'0 0.0
2017-Nov-09 10:28N 48°18' W 004°30'0 0.0
2017-Nov-09 09:49N 48°18' W 004°30'0 0.0
2017-Nov-09 09:28N 48°18' W 004°30'0 0.0
2017-Nov-09 08:58N 48°18' W 004°30'0 0.0
2017-Nov-09 08:25N 48°18' W 004°30'0 0.0
2017-Nov-09 07:53N 48°18' W 004°30'0 1.0
2017-Nov-09 07:30N 48°18' W 004°30'3 5.8
2017-Nov-09 07:00N 48°21' W 004°29'2 0.1
2017-Nov-08 14:16N 48°23' W 004°30'0 0.0
2017-Nov-08 13:58N 48°23' W 004°30'0 0.0
2017-Nov-08 13:12N 48°23' W 004°30'0 0.0
2017-Nov-08 13:00N 48°23' W 004°30'0 0.0
2017-Nov-08 12:30N 48°23' W 004°30'0 0.0
2017-Nov-08 12:00N 48°23' W 004°30'0 0.0
2017-Nov-08 11:30N 48°23' W 004°30'0 0.0
2017-Nov-08 11:00N 48°23' W 004°30'0 0.0
2017-Nov-08 10:30N 48°23' W 004°30'0 0.0
2017-Nov-08 10:00N 48°23' W 004°30'0 0.0
2017-Nov-08 09:30N 48°23' W 004°30'0 0.0
2017-Nov-08 09:00N 48°23' W 004°30'0 0.0
2017-Nov-08 08:30N 48°23' W 004°30'0 0.0
2017-Nov-07 14:38N 48°23' W 004°30'0 0.0
2017-Nov-07 14:29N 48°23' W 004°30'0 0.0
2017-Nov-07 13:59N 48°23' W 004°30'  

Dump ship's entire track history